Карточка аэропорта UATT

Внимание!
Информация на этой странице в стадии наполнения.
Если вы не увидели какой-то информации, или заметили неточность - пожалуйста сообщите нам!
Спасибо!
Команда RU-STAFF
Название аэропортаАктобе
Название аэропорта (англ.)Aktobe
Превышение738 ft. (224.9 m.)
Координаты50°14.748', 57°12.402'
Высота перехода10000ft
Эшелон переходаFL120, QNH<733:FL130
Коды ответчика3440-3447, 3540-3547
Зона ОрВДАктобе РПИ (UATT)
Данные METARUATT 190130Z 06004MPS CAVOK 17/14 Q1005 NOSIG RMK QFE734/0979
Проноз погоды (TAF)UATT 182301Z 1900/1924 32003MPS 9999 SCT033CB TX26/1912Z TN15/1901Z TEMPO 1900/1906 VRB17MPS 3100 -TSRA SQ BKN015CB TEMPO 1906/1912 35008MPS 4000 -SHRA BKN015CB BECMG 1918/1920 3100 BR SCT011 TEMPO 1921/1924 1000 BKN005
NOTAMshow/hide NOTAM
AWOS   TABLE

Информация о ВПП

ВПП Длина ВПП (м.) Покрытие Курс ВПП Частота ILS
133202Бетон135111.7
313202Бетон315111.7

Диспетчерские позиции




Спутниковое изображение